createdAt,value
2022-10-31T00:03:00.671Z,13.98
2022-10-31T00:06:08.990Z,13.98
2022-10-31T00:09:17.250Z,14.10
2022-10-31T00:12:22.964Z,14.09
2022-10-31T00:15:29.176Z,14.12
2022-10-31T00:18:35.785Z,14.18
2022-10-31T00:21:42.577Z,14.19
2022-10-31T00:24:49.081Z,14.24
2022-10-31T00:27:54.880Z,14.26
2022-10-31T00:31:01.094Z,14.29
2022-10-31T00:34:07.229Z,14.29
2022-10-31T00:37:13.556Z,14.14
2022-10-31T00:40:23.158Z,14.20
2022-10-31T00:43:29.407Z,13.98
2022-10-31T00:46:35.874Z,13.82
2022-10-31T00:49:41.878Z,13.75
2022-10-31T00:52:47.400Z,13.70
2022-10-31T00:55:53.228Z,13.72
2022-10-31T00:58:59.354Z,13.68
2022-10-31T01:02:04.270Z,13.70
2022-10-31T01:05:10.607Z,13.63
2022-10-31T01:08:17.842Z,13.66
2022-10-31T01:11:30.414Z,13.60
2022-10-31T01:14:38.026Z,13.62
2022-10-31T01:17:44.707Z,13.58
2022-10-31T01:20:50.636Z,13.58
2022-10-31T01:23:57.564Z,13.61
2022-10-31T01:27:04.123Z,13.47
2022-10-31T01:30:09.415Z,13.63
2022-10-31T01:33:16.071Z,13.59
2022-10-31T01:36:42.531Z,13.60
2022-10-31T01:39:48.247Z,13.58
2022-10-31T01:42:54.625Z,13.61
2022-10-31T01:46:03.403Z,13.64
2022-10-31T01:49:10.035Z,13.45
2022-10-31T01:52:19.954Z,13.52
2022-10-31T01:55:35.840Z,13.46
2022-10-31T01:58:43.755Z,13.41
2022-10-31T02:01:49.299Z,13.32
2022-10-31T02:04:55.593Z,13.33
2022-10-31T02:08:44.760Z,13.27
2022-10-31T02:11:53.244Z,13.19
2022-10-31T02:14:59.857Z,13.14
2022-10-31T02:18:05.253Z,13.23
2022-10-31T02:21:36.137Z,13.19
2022-10-31T02:25:21.135Z,13.22
2022-10-31T02:29:05.869Z,13.11
2022-10-31T02:32:26.850Z,13.03
2022-10-31T02:35:43.189Z,12.99
2022-10-31T02:39:07.785Z,13.00
2022-10-31T02:42:39.541Z,13.03
2022-10-31T02:46:08.078Z,12.88
2022-10-31T02:49:11.421Z,12.77
2022-10-31T02:52:18.033Z,12.71
2022-10-31T02:55:43.500Z,12.81
2022-10-31T02:58:53.175Z,12.88
2022-10-31T03:02:19.011Z,12.79
2022-10-31T03:06:01.639Z,12.77
2022-10-31T03:09:23.426Z,12.74
2022-10-31T03:12:25.742Z,12.58
2022-10-31T03:15:42.714Z,12.49
2022-10-31T03:18:58.285Z,12.49
2022-10-31T03:22:15.078Z,12.39
2022-10-31T03:25:21.550Z,12.34
2022-10-31T03:28:28.669Z,12.34
2022-10-31T03:31:38.380Z,12.28
2022-10-31T03:34:45.344Z,12.38
2022-10-31T03:37:52.878Z,12.24
2022-10-31T03:41:00.212Z,12.16
2022-10-31T03:44:13.013Z,12.14
2022-10-31T03:47:21.601Z,12.08
2022-10-31T03:50:23.129Z,12.04
2022-10-31T03:53:45.110Z,11.98
2022-10-31T03:56:54.998Z,12.00
2022-10-31T04:00:05.482Z,12.00
2022-10-31T04:03:34.583Z,12.01
2022-10-31T04:06:41.786Z,11.93
2022-10-31T04:09:49.159Z,11.86
2022-10-31T04:12:54.914Z,11.77
2022-10-31T04:16:02.750Z,11.72
2022-10-31T04:19:08.682Z,11.74
2022-10-31T04:22:14.964Z,11.80
2022-10-31T04:25:23.288Z,11.78
2022-10-31T04:28:29.532Z,11.87
2022-10-31T04:31:34.275Z,11.87
2022-10-31T04:34:39.771Z,11.89
2022-10-31T04:37:38.263Z,11.95
2022-10-31T04:40:45.385Z,11.78
2022-10-31T04:44:03.107Z,11.76
2022-10-31T04:47:09.548Z,11.79
2022-10-31T04:50:15.151Z,11.75
2022-10-31T04:53:20.561Z,11.72
2022-10-31T04:56:29.168Z,11.77
2022-10-31T04:59:35.757Z,11.78
2022-10-31T05:02:44.520Z,11.72
2022-10-31T05:05:51.858Z,11.78
2022-10-31T05:08:57.955Z,11.77
2022-10-31T05:12:04.716Z,11.75
2022-10-31T05:15:20.000Z,11.87
2022-10-31T05:18:45.426Z,11.84
2022-10-31T05:22:12.478Z,11.92
2022-10-31T05:25:19.957Z,11.89
2022-10-31T07:56:40.524Z,12.43
2022-10-31T07:59:48.102Z,12.53
2022-10-31T08:03:00.290Z,12.67
2022-10-31T08:06:14.161Z,13.00
2022-10-31T08:09:48.277Z,12.79
2022-10-31T08:13:01.280Z,12.89
2022-10-31T08:16:12.198Z,12.96
2022-10-31T08:22:24.848Z,12.97
2022-10-31T08:25:38.194Z,13.26
2022-10-31T08:28:42.056Z,13.35
2022-10-31T08:35:13.843Z,13.52
2022-10-31T08:38:36.843Z,13.40
2022-10-31T08:41:52.659Z,13.21
2022-10-31T08:44:46.218Z,13.00
2022-10-31T08:47:59.244Z,13.01
2022-10-31T08:51:07.940Z,12.88
2022-10-31T08:54:16.583Z,12.74
2022-10-31T08:57:30.977Z,12.77
2022-10-31T09:00:38.998Z,12.77
2022-10-31T09:03:50.735Z,12.74
2022-10-31T09:07:20.460Z,12.77
2022-10-31T09:10:14.358Z,12.66
2022-10-31T09:13:28.380Z,12.47
2022-10-31T09:20:04.386Z,12.63
2022-10-31T09:23:20.513Z,12.55
2022-10-31T09:26:19.544Z,12.70
2022-10-31T09:36:46.362Z,13.04
2022-10-31T09:39:58.231Z,13.11
2022-10-31T09:43:36.643Z,13.08
2022-10-31T09:47:08.615Z,12.88
2022-10-31T09:50:46.136Z,12.74
2022-10-31T09:54:21.711Z,12.94
2022-10-31T09:57:34.582Z,12.89
2022-10-31T10:00:47.635Z,12.83
2022-10-31T10:04:35.661Z,12.89
2022-10-31T10:08:00.010Z,13.23
2022-10-31T10:15:10.148Z,12.95
2022-10-31T10:18:39.126Z,12.78
2022-10-31T10:21:56.514Z,12.77
2022-10-31T10:25:32.216Z,12.69
2022-10-31T10:28:49.943Z,12.56
2022-10-31T10:31:56.772Z,12.54
2022-10-31T10:35:06.576Z,12.56
2022-10-31T10:38:15.722Z,12.57
2022-10-31T10:41:29.405Z,12.41
2022-10-31T10:44:52.340Z,12.36
2022-10-31T10:48:03.079Z,12.34
2022-10-31T10:51:25.439Z,12.12
2022-10-31T10:54:47.905Z,12.05
2022-10-31T10:58:14.225Z,12.11
2022-10-31T11:01:30.161Z,12.07
2022-10-31T11:04:49.487Z,12.12
2022-10-31T11:07:55.306Z,12.17
2022-10-31T11:11:00.648Z,12.10
2022-10-31T11:14:20.873Z,12.04
2022-10-31T11:17:39.452Z,11.93
2022-10-31T11:20:50.470Z,11.87
2022-10-31T11:23:57.848Z,11.77
2022-10-31T11:27:05.485Z,11.69
2022-10-31T11:30:20.822Z,11.86
2022-10-31T11:33:43.326Z,11.49
2022-10-31T11:36:46.657Z,11.62
2022-10-31T11:40:00.768Z,11.50
2022-10-31T11:43:06.791Z,11.44
2022-10-31T11:46:13.001Z,11.40
2022-10-31T11:49:18.621Z,11.32
2022-10-31T11:52:36.408Z,11.23
2022-10-31T11:55:49.276Z,11.01
2022-10-31T11:59:16.529Z,10.98
2022-10-31T12:02:34.116Z,10.97
2022-10-31T12:06:01.619Z,10.89
2022-10-31T12:09:08.098Z,10.77
2022-10-31T12:12:40.623Z,10.87
2022-10-31T12:15:51.648Z,10.79
2022-10-31T12:19:06.388Z,10.89
2022-10-31T12:22:20.154Z,10.96
2022-10-31T12:25:32.462Z,11.04
2022-10-31T12:29:04.248Z,10.98
2022-10-31T12:32:14.655Z,10.83
2022-10-31T12:36:10.969Z,10.77
2022-10-31T12:39:52.157Z,10.79
2022-10-31T12:43:38.357Z,10.67
2022-10-31T12:46:58.267Z,10.72
2022-10-31T12:50:57.745Z,10.68
2022-10-31T12:54:27.770Z,10.71
2022-10-31T12:57:45.673Z,10.55
2022-10-31T13:00:51.128Z,10.68
2022-10-31T13:04:12.760Z,10.67
2022-10-31T13:07:21.911Z,10.59
2022-10-31T13:10:39.964Z,10.59
2022-10-31T13:13:59.026Z,10.55
2022-10-31T13:17:04.436Z,10.67
2022-10-31T13:20:22.125Z,10.55
2022-10-31T13:23:50.985Z,10.60
2022-10-31T13:27:00.307Z,10.66
2022-10-31T13:30:17.116Z,10.74
2022-10-31T13:33:25.686Z,10.51
2022-10-31T13:36:56.711Z,10.63
2022-10-31T13:40:28.774Z,10.63
2022-10-31T13:43:47.925Z,10.56
2022-10-31T13:46:54.690Z,10.61
2022-10-31T13:49:59.752Z,10.45
2022-10-31T13:53:06.306Z,10.51
2022-10-31T13:56:36.905Z,10.49
2022-10-31T13:59:47.094Z,10.48
2022-10-31T14:02:51.782Z,10.51
2022-10-31T14:05:56.881Z,10.45
2022-10-31T14:09:06.182Z,10.40
2022-10-31T14:12:15.025Z,10.21
2022-10-31T14:15:38.376Z,10.17
2022-10-31T14:18:54.311Z,10.17
2022-10-31T14:22:01.705Z,10.06
2022-10-31T14:25:08.097Z,10.02
2022-10-31T14:28:14.891Z,10.00
2022-10-31T14:31:45.834Z,9.92
2022-10-31T14:34:59.905Z,9.82
2022-10-31T18:40:07.254Z,6.57
2022-10-31T18:43:12.773Z,6.52
2022-10-31T18:46:21.053Z,6.57
2022-10-31T18:49:29.098Z,6.58
2022-10-31T18:52:34.674Z,6.58
2022-10-31T18:55:43.966Z,6.58
2022-10-31T18:58:48.383Z,6.61
2022-10-31T19:01:54.205Z,6.59
2022-10-31T19:04:54.563Z,6.54
2022-10-31T19:07:59.815Z,6.52
2022-10-31T19:11:05.916Z,6.51
2022-10-31T19:14:13.649Z,6.64
2022-10-31T19:17:20.455Z,6.42
2022-10-31T19:20:27.875Z,6.41
2022-10-31T19:23:34.669Z,6.39
2022-10-31T19:26:41.710Z,6.34
2022-10-31T19:29:49.524Z,6.25
2022-10-31T19:32:54.999Z,6.26
2022-10-31T19:36:01.039Z,6.20
2022-10-31T19:39:07.534Z,6.19
2022-10-31T19:42:13.298Z,6.11
2022-10-31T19:45:20.689Z,6.08
2022-10-31T19:48:25.088Z,6.24
2022-10-31T19:51:34.640Z,6.35
2022-10-31T19:54:39.457Z,6.22
2022-10-31T19:58:01.280Z,6.13
2022-10-31T20:00:56.126Z,6.15
2022-10-31T20:04:01.882Z,6.11
2022-10-31T20:07:09.565Z,6.08
2022-10-31T20:10:15.985Z,5.88
2022-10-31T20:13:22.259Z,5.95
2022-10-31T20:16:27.973Z,5.96
2022-10-31T20:19:33.389Z,5.79
2022-10-31T20:22:39.082Z,5.74
2022-10-31T20:25:44.487Z,5.77
2022-10-31T20:28:50.889Z,5.92
2022-10-31T20:31:56.213Z,5.76
2022-10-31T20:35:03.154Z,5.65
2022-10-31T20:38:02.987Z,5.74
2022-10-31T20:40:55.435Z,5.85
2022-10-31T20:44:01.298Z,5.82
2022-10-31T20:47:07.422Z,5.84
2022-10-31T20:50:14.037Z,5.77
2022-10-31T20:53:19.383Z,5.76
2022-10-31T20:56:31.054Z,5.88
2022-10-31T20:59:37.599Z,5.79
2022-10-31T21:02:43.165Z,5.79
2022-10-31T21:05:50.256Z,5.78
2022-10-31T21:08:57.260Z,5.57
2022-10-31T21:12:05.193Z,5.62
2022-10-31T21:15:11.042Z,5.62
2022-10-31T21:18:17.592Z,5.66
2022-10-31T21:21:32.573Z,5.54
2022-10-31T21:24:37.076Z,5.42
2022-10-31T21:27:42.030Z,5.38
2022-10-31T21:30:48.487Z,5.42
2022-10-31T21:33:55.279Z,5.39
2022-10-31T21:37:01.595Z,5.38
2022-10-31T21:40:07.890Z,5.28
2022-10-31T21:43:13.192Z,5.37
2022-10-31T21:46:23.709Z,5.26
2022-10-31T21:49:29.119Z,5.19
2022-10-31T21:52:27.709Z,5.14
2022-10-31T21:55:14.755Z,5.12
2022-10-31T21:58:06.495Z,5.19
2022-10-31T22:00:52.581Z,5.23
2022-10-31T22:03:45.951Z,5.20
2022-10-31T22:06:51.981Z,5.20
2022-10-31T22:09:58.157Z,5.28
2022-10-31T22:13:05.151Z,5.23
2022-10-31T22:16:17.798Z,5.22
2022-10-31T22:19:27.499Z,5.07
2022-10-31T22:22:34.289Z,5.36
2022-10-31T22:25:40.307Z,5.18
2022-10-31T22:28:47.763Z,5.18
2022-10-31T22:31:59.580Z,5.18
2022-10-31T22:34:59.584Z,5.43
2022-10-31T22:38:05.690Z,5.35
2022-10-31T22:41:12.695Z,5.33
2022-10-31T22:44:19.429Z,5.31
2022-10-31T22:47:25.574Z,5.11
2022-10-31T22:50:31.794Z,5.07
2022-10-31T22:53:37.237Z,5.01
2022-10-31T22:56:47.382Z,5.03
2022-10-31T22:59:51.836Z,5.02
2022-10-31T23:02:57.349Z,4.93
2022-10-31T23:06:14.050Z,4.96
2022-10-31T23:09:21.069Z,5.01
2022-10-31T23:12:44.156Z,5.09
2022-10-31T23:15:52.534Z,5.12
2022-10-31T23:18:58.457Z,5.04
2022-10-31T23:22:08.533Z,4.82
2022-10-31T23:25:14.224Z,4.74
2022-10-31T23:28:19.847Z,4.67
2022-10-31T23:31:26.545Z,4.75
2022-10-31T23:34:32.079Z,4.92
2022-10-31T23:37:39.653Z,4.76
2022-10-31T23:40:47.254Z,4.81
2022-10-31T23:43:55.312Z,4.70
2022-10-31T23:47:02.516Z,4.69
2022-10-31T23:50:08.081Z,4.69
2022-10-31T23:53:15.181Z,4.67
2022-10-31T23:56:22.477Z,4.65
2022-10-31T23:59:30.208Z,4.74
